sensor_id;sensor_type;location;lat;lon;timestamp;P1;durP1;ratioP1;P2;durP2;ratioP2
36205;SDS011;22242;48.796;9.930;2023-02-18T00:01:19;2.75;;;1.52;;
36205;SDS011;22242;48.796;9.930;2023-02-18T00:03:47;1.42;;;1.10;;
36205;SDS011;22242;48.796;9.930;2023-02-18T00:06:16;1.85;;;1.08;;
36205;SDS011;22242;48.796;9.930;2023-02-18T00:08:45;0.77;;;0.77;;
36205;SDS011;22242;48.796;9.930;2023-02-18T00:11:12;1.10;;;1.00;;
36205;SDS011;22242;48.796;9.930;2023-02-18T00:13:40;1.95;;;0.93;;
36205;SDS011;22242;48.796;9.930;2023-02-18T00:16:07;0.98;;;0.95;;
36205;SDS011;22242;48.796;9.930;2023-02-18T00:18:36;0.90;;;0.90;;
36205;SDS011;22242;48.796;9.930;2023-02-18T00:21:04;0.80;;;0.80;;
36205;SDS011;22242;48.796;9.930;2023-02-18T00:23:33;1.05;;;0.90;;
36205;SDS011;22242;48.796;9.930;2023-02-18T00:26:00;0.80;;;0.77;;
36205;SDS011;22242;48.796;9.930;2023-02-18T00:28:29;1.15;;;0.95;;
36205;SDS011;22242;48.796;9.930;2023-02-18T00:30:58;0.90;;;0.90;;
36205;SDS011;22242;48.796;9.930;2023-02-18T00:33:25;1.10;;;1.00;;
36205;SDS011;22242;48.796;9.930;2023-02-18T00:35:52;0.65;;;0.65;;
36205;SDS011;22242;48.796;9.930;2023-02-18T00:38:27;0.80;;;0.80;;
36205;SDS011;22242;48.796;9.930;2023-02-18T00:40:55;1.23;;;0.82;;
36205;SDS011;22242;48.796;9.930;2023-02-18T00:43:23;1.00;;;0.90;;
36205;SDS011;22242;48.796;9.930;2023-02-18T00:45:50;0.82;;;0.80;;
36205;SDS011;22242;48.796;9.930;2023-02-18T00:48:17;0.70;;;0.70;;
36205;SDS011;22242;48.796;9.930;2023-02-18T00:50:44;1.52;;;0.68;;
36205;SDS011;22242;48.796;9.930;2023-02-18T00:53:12;0.77;;;0.70;;
36205;SDS011;22242;48.796;9.930;2023-02-18T00:55:39;0.70;;;0.70;;
36205;SDS011;22242;48.796;9.930;2023-02-18T00:58:08;0.70;;;0.70;;
36205;SDS011;22242;48.796;9.930;2023-02-18T01:00:35;0.55;;;0.55;;
36205;SDS011;22242;48.796;9.930;2023-02-18T01:03:03;1.25;;;0.80;;
36205;SDS011;22242;48.796;9.930;2023-02-18T01:05:32;0.80;;;0.80;;
36205;SDS011;22242;48.796;9.930;2023-02-18T01:07:59;0.77;;;0.73;;
36205;SDS011;22242;48.796;9.930;2023-02-18T01:10:28;0.65;;;0.65;;
36205;SDS011;22242;48.796;9.930;2023-02-18T01:12:55;1.08;;;0.88;;
36205;SDS011;22242;48.796;9.930;2023-02-18T01:15:24;0.75;;;0.75;;
36205;SDS011;22242;48.796;9.930;2023-02-18T01:17:51;1.17;;;0.63;;
36205;SDS011;22242;48.796;9.930;2023-02-18T01:20:18;2.50;;;0.80;;
36205;SDS011;22242;48.796;9.930;2023-02-18T01:22:46;1.83;;;0.60;;
36205;SDS011;22242;48.796;9.930;2023-02-18T01:25:13;0.70;;;0.70;;
36205;SDS011;22242;48.796;9.930;2023-02-18T01:27:41;2.28;;;0.80;;
36205;SDS011;22242;48.796;9.930;2023-02-18T01:30:09;1.92;;;0.80;;
36205;SDS011;22242;48.796;9.930;2023-02-18T01:32:40;2.03;;;0.90;;
36205;SDS011;22242;48.796;9.930;2023-02-18T01:35:10;0.77;;;0.70;;
36205;SDS011;22242;48.796;9.930;2023-02-18T01:37:38;1.05;;;0.70;;
36205;SDS011;22242;48.796;9.930;2023-02-18T01:40:06;1.20;;;1.10;;
36205;SDS011;22242;48.796;9.930;2023-02-18T01:42:34;1.52;;;1.15;;
36205;SDS011;22242;48.796;9.930;2023-02-18T01:48:14;0.75;;;0.70;;
36205;SDS011;22242;48.796;9.930;2023-02-18T01:50:44;1.42;;;1.30;;
36205;SDS011;22242;48.796;9.930;2023-02-18T01:53:15;1.15;;;1.00;;
36205;SDS011;22242;48.796;9.930;2023-02-18T01:55:48;1.92;;;1.10;;
36205;SDS011;22242;48.796;9.930;2023-02-18T01:58:16;1.08;;;0.88;;
36205;SDS011;22242;48.796;9.930;2023-02-18T02:00:44;1.35;;;0.90;;
36205;SDS011;22242;48.796;9.930;2023-02-18T02:03:14;1.30;;;1.00;;
36205;SDS011;22242;48.796;9.930;2023-02-18T02:05:42;1.38;;;0.98;;
36205;SDS011;22242;48.796;9.930;2023-02-18T02:08:14;1.50;;;1.23;;
36205;SDS011;22242;48.796;9.930;2023-02-18T02:10:46;1.33;;;1.23;;
36205;SDS011;22242;48.796;9.930;2023-02-18T02:13:26;1.40;;;1.02;;
36205;SDS011;22242;48.796;9.930;2023-02-18T02:16:02;1.45;;;1.20;;
36205;SDS011;22242;48.796;9.930;2023-02-18T02:18:38;1.23;;;1.13;;
36205;SDS011;22242;48.796;9.930;2023-02-18T02:21:27;0.85;;;0.85;;
36205;SDS011;22242;48.796;9.930;2023-02-18T02:33:31;1.08;;;0.98;;
36205;SDS011;22242;48.796;9.930;2023-02-18T02:36:13;1.77;;;1.25;;
36205;SDS011;22242;48.796;9.930;2023-02-18T02:38:45;1.75;;;0.93;;
36205;SDS011;22242;48.796;9.930;2023-02-18T02:41:25;2.25;;;1.00;;
36205;SDS011;22242;48.796;9.930;2023-02-18T02:44:01;1.80;;;1.45;;
36205;SDS011;22242;48.796;9.930;2023-02-18T02:46:37;1.25;;;1.15;;
36205;SDS011;22242;48.796;9.930;2023-02-18T02:49:07;1.60;;;1.50;;
36205;SDS011;22242;48.796;9.930;2023-02-18T02:51:47;1.48;;;1.35;;
36205;SDS011;22242;48.796;9.930;2023-02-18T02:54:20;1.23;;;1.13;;
36205;SDS011;22242;48.796;9.930;2023-02-18T02:56:48;2.17;;;1.20;;
36205;SDS011;22242;48.796;9.930;2023-02-18T02:59:21;1.95;;;1.10;;
36205;SDS011;22242;48.796;9.930;2023-02-18T03:01:57;1.00;;;1.00;;
36205;SDS011;22242;48.796;9.930;2023-02-18T03:04:35;1.52;;;1.38;;
36205;SDS011;22242;48.796;9.930;2023-02-18T03:10:24;0.95;;;0.90;;
36205;SDS011;22242;48.796;9.930;2023-02-18T03:13:03;1.20;;;1.10;;
36205;SDS011;22242;48.796;9.930;2023-02-18T03:15:42;1.52;;;1.30;;
36205;SDS011;22242;48.796;9.930;2023-02-18T03:18:16;1.30;;;1.20;;
36205;SDS011;22242;48.796;9.930;2023-02-18T03:20:52;3.95;;;1.48;;
36205;SDS011;22242;48.796;9.930;2023-02-18T03:23:24;1.27;;;1.10;;
36205;SDS011;22242;48.796;9.930;2023-02-18T03:25:54;1.35;;;1.20;;
36205;SDS011;22242;48.796;9.930;2023-02-18T03:28:23;1.23;;;1.13;;
36205;SDS011;22242;48.796;9.930;2023-02-18T03:30:58;1.30;;;1.20;;
36205;SDS011;22242;48.796;9.930;2023-02-18T03:33:29;3.28;;;1.10;;
36205;SDS011;22242;48.796;9.930;2023-02-18T03:35:59;2.22;;;1.40;;
36205;SDS011;22242;48.796;9.930;2023-02-18T03:38:30;1.90;;;1.75;;
36205;SDS011;22242;48.796;9.930;2023-02-18T03:41:01;1.30;;;1.13;;
36205;SDS011;22242;48.796;9.930;2023-02-18T03:43:28;1.63;;;1.30;;
36205;SDS011;22242;48.796;9.930;2023-02-18T03:45:56;1.65;;;1.23;;
36205;SDS011;22242;48.796;9.930;2023-02-18T03:48:24;1.48;;;1.20;;
36205;SDS011;22242;48.796;9.930;2023-02-18T03:50:51;1.08;;;1.00;;
36205;SDS011;22242;48.796;9.930;2023-02-18T03:53:18;1.50;;;1.00;;
36205;SDS011;22242;48.796;9.930;2023-02-18T03:55:47;1.00;;;0.90;;
36205;SDS011;22242;48.796;9.930;2023-02-18T03:58:14;2.80;;;1.00;;
36205;SDS011;22242;48.796;9.930;2023-02-18T04:00:41;0.75;;;0.73;;
36205;SDS011;22242;48.796;9.930;2023-02-18T04:03:08;0.85;;;0.85;;
36205;SDS011;22242;48.796;9.930;2023-02-18T04:05:35;1.00;;;0.90;;
36205;SDS011;22242;48.796;9.930;2023-02-18T04:08:02;0.88;;;0.80;;
36205;SDS011;22242;48.796;9.930;2023-02-18T04:10:29;1.05;;;0.60;;
36205;SDS011;22242;48.796;9.930;2023-02-18T04:12:58;0.82;;;0.82;;
36205;SDS011;22242;48.796;9.930;2023-02-18T04:15:25;0.77;;;0.77;;
36205;SDS011;22242;48.796;9.930;2023-02-18T04:17:52;1.35;;;0.85;;
36205;SDS011;22242;48.796;9.930;2023-02-18T04:20:19;0.82;;;0.82;;
36205;SDS011;22242;48.796;9.930;2023-02-18T04:22:47;1.02;;;0.90;;
36205;SDS011;22242;48.796;9.930;2023-02-18T04:25:14;1.33;;;1.23;;
36205;SDS011;22242;48.796;9.930;2023-02-18T04:27:41;1.02;;;0.90;;
36205;SDS011;22242;48.796;9.930;2023-02-18T04:30:10;1.10;;;1.00;;
36205;SDS011;22242;48.796;9.930;2023-02-18T04:32:37;0.80;;;0.80;;
36205;SDS011;22242;48.796;9.930;2023-02-18T04:35:05;1.17;;;1.08;;
36205;SDS011;22242;48.796;9.930;2023-02-18T04:37:32;1.40;;;1.30;;
36205;SDS011;22242;48.796;9.930;2023-02-18T04:39:59;1.20;;;0.93;;
36205;SDS011;22242;48.796;9.930;2023-02-18T04:42:26;1.13;;;1.02;;
36205;SDS011;22242;48.796;9.930;2023-02-18T04:44:53;2.38;;;1.00;;
36205;SDS011;22242;48.796;9.930;2023-02-18T04:47:21;1.08;;;1.00;;
36205;SDS011;22242;48.796;9.930;2023-02-18T04:49:48;0.90;;;0.90;;
36205;SDS011;22242;48.796;9.930;2023-02-18T04:52:15;1.20;;;1.10;;
36205;SDS011;22242;48.796;9.930;2023-02-18T04:54:42;1.00;;;1.00;;
36205;SDS011;22242;48.796;9.930;2023-02-18T04:57:10;1.10;;;1.00;;
36205;SDS011;22242;48.796;9.930;2023-02-18T04:59:37;1.52;;;1.40;;
36205;SDS011;22242;48.796;9.930;2023-02-18T05:02:04;1.00;;;1.00;;
36205;SDS011;22242;48.796;9.930;2023-02-18T05:04:33;1.40;;;1.30;;
36205;SDS011;22242;48.796;9.930;2023-02-18T05:07:00;3.88;;;2.25;;
36205;SDS011;22242;48.796;9.930;2023-02-18T05:09:27;1.67;;;1.17;;
36205;SDS011;22242;48.796;9.930;2023-02-18T05:11:54;1.48;;;1.38;;
36205;SDS011;22242;48.796;9.930;2023-02-18T05:14:21;1.40;;;1.30;;
36205;SDS011;22242;48.796;9.930;2023-02-18T05:16:48;1.30;;;1.20;;
36205;SDS011;22242;48.796;9.930;2023-02-18T05:19:15;1.40;;;1.30;;
36205;SDS011;22242;48.796;9.930;2023-02-18T05:21:44;1.92;;;1.40;;
36205;SDS011;22242;48.796;9.930;2023-02-18T05:24:11;2.38;;;1.30;;
36205;SDS011;22242;48.796;9.930;2023-02-18T05:26:38;1.60;;;1.50;;
36205;SDS011;22242;48.796;9.930;2023-02-18T05:29:05;1.40;;;1.30;;
36205;SDS011;22242;48.796;9.930;2023-02-18T05:31:32;1.90;;;1.50;;
36205;SDS011;22242;48.796;9.930;2023-02-18T05:33:59;3.55;;;1.33;;
36205;SDS011;22242;48.796;9.930;2023-02-18T05:36:26;2.17;;;1.58;;
36205;SDS011;22242;48.796;9.930;2023-02-18T05:38:55;1.27;;;1.17;;
36205;SDS011;22242;48.796;9.930;2023-02-18T05:41:22;1.58;;;1.48;;
36205;SDS011;22242;48.796;9.930;2023-02-18T05:43:49;1.70;;;1.60;;
36205;SDS011;22242;48.796;9.930;2023-02-18T05:46:34;3.45;;;1.75;;
36205;SDS011;22242;48.796;9.930;2023-02-18T05:49:01;2.05;;;1.73;;
36205;SDS011;22242;48.796;9.930;2023-02-18T05:51:28;1.73;;;1.38;;
36205;SDS011;22242;48.796;9.930;2023-02-18T05:53:56;1.80;;;1.40;;
36205;SDS011;22242;48.796;9.930;2023-02-18T05:56:24;1.23;;;1.10;;
36205;SDS011;22242;48.796;9.930;2023-02-18T05:58:51;1.40;;;1.30;;
36205;SDS011;22242;48.796;9.930;2023-02-18T06:01:18;1.73;;;1.13;;
36205;SDS011;22242;48.796;9.930;2023-02-18T06:03:45;2.10;;;1.02;;
36205;SDS011;22242;48.796;9.930;2023-02-18T06:06:12;1.73;;;1.40;;
36205;SDS011;22242;48.796;9.930;2023-02-18T06:08:39;1.60;;;1.50;;
36205;SDS011;22242;48.796;9.930;2023-02-18T06:11:07;1.95;;;1.38;;
36205;SDS011;22242;48.796;9.930;2023-02-18T06:13:34;1.50;;;1.23;;
36205;SDS011;22242;48.796;9.930;2023-02-18T06:16:01;1.33;;;1.15;;
36205;SDS011;22242;48.796;9.930;2023-02-18T06:18:28;1.83;;;1.15;;
36205;SDS011;22242;48.796;9.930;2023-02-18T06:20:55;1.20;;;1.00;;
36205;SDS011;22242;48.796;9.930;2023-02-18T06:23:22;1.67;;;1.08;;
36205;SDS011;22242;48.796;9.930;2023-02-18T06:25:49;1.13;;;1.02;;
36205;SDS011;22242;48.796;9.930;2023-02-18T06:28:18;1.75;;;1.30;;
36205;SDS011;22242;48.796;9.930;2023-02-18T06:30:45;0.98;;;0.95;;
36205;SDS011;22242;48.796;9.930;2023-02-18T06:33:12;1.58;;;1.20;;
36205;SDS011;22242;48.796;9.930;2023-02-18T06:35:39;0.85;;;0.85;;
36205;SDS011;22242;48.796;9.930;2023-02-18T06:38:07;1.02;;;0.93;;
36205;SDS011;22242;48.796;9.930;2023-02-18T06:40:34;1.20;;;1.10;;
36205;SDS011;22242;48.796;9.930;2023-02-18T06:43:01;1.25;;;1.08;;
36205;SDS011;22242;48.796;9.930;2023-02-18T06:45:29;2.42;;;1.15;;
36205;SDS011;22242;48.796;9.930;2023-02-18T06:47:56;1.10;;;1.00;;
36205;SDS011;22242;48.796;9.930;2023-02-18T06:50:23;1.85;;;1.20;;
36205;SDS011;22242;48.796;9.930;2023-02-18T06:52:50;1.30;;;1.15;;
36205;SDS011;22242;48.796;9.930;2023-02-18T06:55:18;2.63;;;1.23;;
36205;SDS011;22242;48.796;9.930;2023-02-18T06:57:45;1.15;;;1.05;;
36205;SDS011;22242;48.796;9.930;2023-02-18T07:00:12;2.10;;;1.10;;
36205;SDS011;22242;48.796;9.930;2023-02-18T07:02:41;1.83;;;1.00;;
36205;SDS011;22242;48.796;9.930;2023-02-18T07:05:08;1.83;;;0.98;;
36205;SDS011;22242;48.796;9.930;2023-02-18T07:07:35;1.20;;;1.10;;
36205;SDS011;22242;48.796;9.930;2023-02-18T07:10:03;0.80;;;0.80;;
36205;SDS011;22242;48.796;9.930;2023-02-18T07:12:30;1.10;;;1.00;;
36205;SDS011;22242;48.796;9.930;2023-02-18T07:14:57;1.27;;;1.17;;
36205;SDS011;22242;48.796;9.930;2023-02-18T07:17:24;3.45;;;2.88;;
36205;SDS011;22242;48.796;9.930;2023-02-18T07:19:53;7.85;;;5.03;;
36205;SDS011;22242;48.796;9.930;2023-02-18T07:22:20;4.88;;;3.47;;
36205;SDS011;22242;48.796;9.930;2023-02-18T07:24:49;4.43;;;2.25;;
36205;SDS011;22242;48.796;9.930;2023-02-18T07:27:17;3.45;;;1.48;;
36205;SDS011;22242;48.796;9.930;2023-02-18T07:29:44;2.45;;;1.73;;
36205;SDS011;22242;48.796;9.930;2023-02-18T07:32:12;1.40;;;1.00;;
36205;SDS011;22242;48.796;9.930;2023-02-18T07:34:39;1.98;;;1.20;;
36205;SDS011;22242;48.796;9.930;2023-02-18T07:37:08;3.38;;;1.20;;
36205;SDS011;22242;48.796;9.930;2023-02-18T07:39:38;1.20;;;1.10;;
36205;SDS011;22242;48.796;9.930;2023-02-18T07:42:06;1.38;;;1.25;;
36205;SDS011;22242;48.796;9.930;2023-02-18T07:44:33;1.13;;;1.02;;
36205;SDS011;22242;48.796;9.930;2023-02-18T07:47:01;1.33;;;1.20;;
36205;SDS011;22242;48.796;9.930;2023-02-18T07:49:28;2.88;;;1.48;;
36205;SDS011;22242;48.796;9.930;2023-02-18T07:51:55;2.13;;;1.50;;
36205;SDS011;22242;48.796;9.930;2023-02-18T07:54:24;2.10;;;1.90;;
36205;SDS011;22242;48.796;9.930;2023-02-18T07:56:51;1.38;;;1.20;;
36205;SDS011;22242;48.796;9.930;2023-02-18T07:59:20;1.98;;;1.23;;
36205;SDS011;22242;48.796;9.930;2023-02-18T08:01:46;2.38;;;1.50;;
36205;SDS011;22242;48.796;9.930;2023-02-18T08:04:13;1.60;;;1.50;;
36205;SDS011;22242;48.796;9.930;2023-02-18T08:06:41;2.17;;;1.25;;
36205;SDS011;22242;48.796;9.930;2023-02-18T08:09:11;4.10;;;1.38;;
36205;SDS011;22242;48.796;9.930;2023-02-18T08:11:39;1.50;;;1.40;;
36205;SDS011;22242;48.796;9.930;2023-02-18T08:14:07;1.38;;;1.10;;
36205;SDS011;22242;48.796;9.930;2023-02-18T08:16:34;1.77;;;1.40;;
36205;SDS011;22242;48.796;9.930;2023-02-18T08:19:01;1.40;;;1.30;;
36205;SDS011;22242;48.796;9.930;2023-02-18T08:21:29;1.90;;;1.45;;
36205;SDS011;22242;48.796;9.930;2023-02-18T08:23:57;1.30;;;1.20;;
36205;SDS011;22242;48.796;9.930;2023-02-18T08:26:24;1.20;;;1.10;;
36205;SDS011;22242;48.796;9.930;2023-02-18T08:28:53;1.80;;;1.52;;
36205;SDS011;22242;48.796;9.930;2023-02-18T08:31:21;1.30;;;1.20;;
36205;SDS011;22242;48.796;9.930;2023-02-18T08:33:50;2.33;;;1.60;;
36205;SDS011;22242;48.796;9.930;2023-02-18T08:36:17;2.30;;;1.40;;
36205;SDS011;22242;48.796;9.930;2023-02-18T08:38:44;8.70;;;4.72;;
36205;SDS011;22242;48.796;9.930;2023-02-18T08:41:11;6.78;;;4.43;;
36205;SDS011;22242;48.796;9.930;2023-02-18T08:43:40;2.90;;;1.50;;
36205;SDS011;22242;48.796;9.930;2023-02-18T08:46:09;2.30;;;1.70;;
36205;SDS011;22242;48.796;9.930;2023-02-18T08:48:36;2.97;;;2.13;;
36205;SDS011;22242;48.796;9.930;2023-02-18T08:51:10;2.33;;;2.05;;
36205;SDS011;22242;48.796;9.930;2023-02-18T08:53:39;1.50;;;1.40;;
36205;SDS011;22242;48.796;9.930;2023-02-18T08:56:06;2.58;;;1.60;;
36205;SDS011;22242;48.796;9.930;2023-02-18T08:58:35;2.30;;;1.42;;
36205;SDS011;22242;48.796;9.930;2023-02-18T09:01:03;2.08;;;1.15;;
36205;SDS011;22242;48.796;9.930;2023-02-18T09:03:32;2.10;;;1.90;;
36205;SDS011;22242;48.796;9.930;2023-02-18T09:06:00;1.35;;;1.25;;
36205;SDS011;22242;48.796;9.930;2023-02-18T09:08:27;2.30;;;1.67;;
36205;SDS011;22242;48.796;9.930;2023-02-18T09:10:55;1.63;;;1.48;;
36205;SDS011;22242;48.796;9.930;2023-02-18T09:13:23;4.43;;;3.05;;
36205;SDS011;22242;48.796;9.930;2023-02-18T09:15:59;1.42;;;1.30;;
36205;SDS011;22242;48.796;9.930;2023-02-18T09:18:28;1.25;;;1.15;;
36205;SDS011;22242;48.796;9.930;2023-02-18T09:20:57;1.27;;;1.10;;
36205;SDS011;22242;48.796;9.930;2023-02-18T09:23:26;2.28;;;2.00;;
36205;SDS011;22242;48.796;9.930;2023-02-18T09:25:54;1.27;;;1.10;;
36205;SDS011;22242;48.796;9.930;2023-02-18T09:28:21;1.33;;;1.23;;
36205;SDS011;22242;48.796;9.930;2023-02-18T09:30:49;1.20;;;1.10;;
36205;SDS011;22242;48.796;9.930;2023-02-18T09:33:16;1.70;;;1.17;;
36205;SDS011;22242;48.796;9.930;2023-02-18T09:35:44;1.70;;;1.00;;
36205;SDS011;22242;48.796;9.930;2023-02-18T09:38:14;1.30;;;1.20;;
36205;SDS011;22242;48.796;9.930;2023-02-18T09:40:43;1.65;;;1.20;;
36205;SDS011;22242;48.796;9.930;2023-02-18T09:43:17;1.30;;;1.20;;
36205;SDS011;22242;48.796;9.930;2023-02-18T09:45:50;1.20;;;1.10;;
36205;SDS011;22242;48.796;9.930;2023-02-18T09:48:18;1.27;;;1.17;;
36205;SDS011;22242;48.796;9.930;2023-02-18T09:50:47;0.90;;;0.80;;
36205;SDS011;22242;48.796;9.930;2023-02-18T09:53:19;1.10;;;0.90;;
36205;SDS011;22242;48.796;9.930;2023-02-18T09:55:48;1.35;;;1.25;;
36205;SDS011;22242;48.796;9.930;2023-02-18T09:58:18;2.50;;;1.42;;
36205;SDS011;22242;48.796;9.930;2023-02-18T10:00:49;0.88;;;0.80;;
36205;SDS011;22242;48.796;9.930;2023-02-18T10:03:19;1.08;;;0.90;;
36205;SDS011;22242;48.796;9.930;2023-02-18T10:05:52;1.13;;;0.80;;
36205;SDS011;22242;48.796;9.930;2023-02-18T10:08:24;1.00;;;0.70;;
36205;SDS011;22242;48.796;9.930;2023-02-18T10:10:53;1.02;;;0.95;;
36205;SDS011;22242;48.796;9.930;2023-02-18T10:13:21;0.82;;;0.70;;
36205;SDS011;22242;48.796;9.930;2023-02-18T10:15:50;0.90;;;0.90;;
36205;SDS011;22242;48.796;9.930;2023-02-18T10:18:23;0.80;;;0.80;;
36205;SDS011;22242;48.796;9.930;2023-02-18T10:20:56;1.05;;;0.90;;
36205;SDS011;22242;48.796;9.930;2023-02-18T10:23:30;0.95;;;0.90;;
36205;SDS011;22242;48.796;9.930;2023-02-18T10:26:00;1.35;;;1.10;;
36205;SDS011;22242;48.796;9.930;2023-02-18T10:28:30;0.93;;;0.90;;
36205;SDS011;22242;48.796;9.930;2023-02-18T10:30:58;1.00;;;0.90;;
36205;SDS011;22242;48.796;9.930;2023-02-18T10:33:32;1.40;;;0.80;;
36205;SDS011;22242;48.796;9.930;2023-02-18T10:36:03;0.97;;;0.70;;
36205;SDS011;22242;48.796;9.930;2023-02-18T10:38:40;0.80;;;0.80;;
36205;SDS011;22242;48.796;9.930;2023-02-18T10:41:18;0.80;;;0.80;;
36205;SDS011;22242;48.796;9.930;2023-02-18T10:43:53;0.90;;;0.80;;
36205;SDS011;22242;48.796;9.930;2023-02-18T10:46:27;1.10;;;1.00;;
36205;SDS011;22242;48.796;9.930;2023-02-18T10:49:10;1.35;;;0.90;;
36205;SDS011;22242;48.796;9.930;2023-02-18T10:51:51;2.75;;;0.98;;
36205;SDS011;22242;48.796;9.930;2023-02-18T10:54:23;1.05;;;0.60;;
36205;SDS011;22242;48.796;9.930;2023-02-18T10:56:51;0.80;;;0.80;;
36205;SDS011;22242;48.796;9.930;2023-02-18T10:59:24;1.45;;;0.88;;
36205;SDS011;22242;48.796;9.930;2023-02-18T11:01:53;3.05;;;0.75;;
36205;SDS011;22242;48.796;9.930;2023-02-18T11:04:22;1.38;;;0.80;;
36205;SDS011;22242;48.796;9.930;2023-02-18T11:06:52;2.95;;;0.88;;
36205;SDS011;22242;48.796;9.930;2023-02-18T11:09:26;2.45;;;1.00;;
36205;SDS011;22242;48.796;9.930;2023-02-18T11:12:01;2.28;;;0.90;;
36205;SDS011;22242;48.796;9.930;2023-02-18T11:14:37;0.68;;;0.68;;
36205;SDS011;22242;48.796;9.930;2023-02-18T11:17:18;1.02;;;0.80;;
36205;SDS011;22242;48.796;9.930;2023-02-18T11:19:51;3.60;;;1.00;;
36205;SDS011;22242;48.796;9.930;2023-02-18T11:22:22;1.20;;;0.93;;
36205;SDS011;22242;48.796;9.930;2023-02-18T11:24:55;0.75;;;0.75;;
36205;SDS011;22242;48.796;9.930;2023-02-18T11:27:25;1.13;;;0.80;;
36205;SDS011;22242;48.796;9.930;2023-02-18T11:29:58;1.38;;;1.05;;
36205;SDS011;22242;48.796;9.930;2023-02-18T11:32:27;0.70;;;0.70;;
36205;SDS011;22242;48.796;9.930;2023-02-18T11:34:55;0.90;;;0.73;;
36205;SDS011;22242;48.796;9.930;2023-02-18T11:37:23;3.05;;;0.70;;
36205;SDS011;22242;48.796;9.930;2023-02-18T11:39:51;0.82;;;0.80;;
36205;SDS011;22242;48.796;9.930;2023-02-18T11:42:23;0.80;;;0.80;;
36205;SDS011;22242;48.796;9.930;2023-02-18T11:44:52;2.45;;;0.90;;
36205;SDS011;22242;48.796;9.930;2023-02-18T11:47:25;0.60;;;0.60;;
36205;SDS011;22242;48.796;9.930;2023-02-18T11:50:01;2.22;;;1.08;;
36205;SDS011;22242;48.796;9.930;2023-02-18T11:52:42;0.70;;;0.70;;
36205;SDS011;22242;48.796;9.930;2023-02-18T11:55:13;1.77;;;1.00;;
36205;SDS011;22242;48.796;9.930;2023-02-18T11:57:44;0.75;;;0.73;;
36205;SDS011;22242;48.796;9.930;2023-02-18T12:00:20;1.70;;;0.80;;
36205;SDS011;22242;48.796;9.930;2023-02-18T12:02:49;1.02;;;0.85;;
36205;SDS011;22242;48.796;9.930;2023-02-18T12:05:17;1.10;;;0.90;;
36205;SDS011;22242;48.796;9.930;2023-02-18T12:07:48;1.00;;;0.88;;
36205;SDS011;22242;48.796;9.930;2023-02-18T12:10:22;1.02;;;0.93;;
36205;SDS011;22242;48.796;9.930;2023-02-18T12:12:55;0.85;;;0.70;;
36205;SDS011;22242;48.796;9.930;2023-02-18T12:15:30;1.00;;;0.90;;
36205;SDS011;22242;48.796;9.930;2023-02-18T12:18:27;0.82;;;0.82;;
36205;SDS011;22242;48.796;9.930;2023-02-18T12:21:14;0.73;;;0.73;;
36205;SDS011;22242;48.796;9.930;2023-02-18T12:23:55;0.65;;;0.65;;
36205;SDS011;22242;48.796;9.930;2023-02-18T12:26:29;2.15;;;0.80;;
36205;SDS011;22242;48.796;9.930;2023-02-18T12:29:13;4.15;;;0.75;;
36205;SDS011;22242;48.796;9.930;2023-02-18T12:31:56;0.93;;;0.60;;
36205;SDS011;22242;48.796;9.930;2023-02-18T12:34:37;1.08;;;0.80;;
36205;SDS011;22242;48.796;9.930;2023-02-18T12:40:17;0.98;;;0.73;;
36205;SDS011;22242;48.796;9.930;2023-02-18T12:43:01;0.73;;;0.70;;
36205;SDS011;22242;48.796;9.930;2023-02-18T12:45:40;1.30;;;0.90;;
36205;SDS011;22242;48.796;9.930;2023-02-18T12:51:21;2.20;;;1.00;;
36205;SDS011;22242;48.796;9.930;2023-02-18T12:54:09;1.55;;;0.73;;
36205;SDS011;22242;48.796;9.930;2023-02-18T12:57:08;0.80;;;0.80;;
36205;SDS011;22242;48.796;9.930;2023-02-18T13:03:14;1.08;;;0.80;;
36205;SDS011;22242;48.796;9.930;2023-02-18T13:06:02;0.63;;;0.63;;
36205;SDS011;22242;48.796;9.930;2023-02-18T13:08:41;2.15;;;0.93;;
36205;SDS011;22242;48.796;9.930;2023-02-18T13:11:22;0.70;;;0.70;;
36205;SDS011;22242;48.796;9.930;2023-02-18T13:13:55;1.40;;;0.98;;
36205;SDS011;22242;48.796;9.930;2023-02-18T13:16:26;2.53;;;0.75;;
36205;SDS011;22242;48.796;9.930;2023-02-18T13:18:57;2.15;;;0.88;;
36205;SDS011;22242;48.796;9.930;2023-02-18T13:21:27;0.83;;;0.80;;
36205;SDS011;22242;48.796;9.930;2023-02-18T13:23:57;0.75;;;0.75;;
36205;SDS011;22242;48.796;9.930;2023-02-18T13:26:28;1.40;;;0.80;;
36205;SDS011;22242;48.796;9.930;2023-02-18T13:29:02;1.10;;;1.02;;
36205;SDS011;22242;48.796;9.930;2023-02-18T13:31:41;0.90;;;0.80;;
36205;SDS011;22242;48.796;9.930;2023-02-18T13:34:16;1.33;;;1.00;;
36205;SDS011;22242;48.796;9.930;2023-02-18T13:36:51;0.82;;;0.70;;
36205;SDS011;22242;48.796;9.930;2023-02-18T13:39:26;1.73;;;0.85;;
36205;SDS011;22242;48.796;9.930;2023-02-18T13:42:09;1.80;;;0.88;;
36205;SDS011;22242;48.796;9.930;2023-02-18T13:45:21;4.07;;;1.10;;
36205;SDS011;22242;48.796;9.930;2023-02-18T13:47:51;1.63;;;0.90;;
36205;SDS011;22242;48.796;9.930;2023-02-18T13:50:27;0.73;;;0.70;;
36205;SDS011;22242;48.796;9.930;2023-02-18T13:53:13;2.00;;;0.80;;
36205;SDS011;22242;48.796;9.930;2023-02-18T13:55:49;1.15;;;0.90;;
36205;SDS011;22242;48.796;9.930;2023-02-18T13:58:19;3.70;;;1.10;;
36205;SDS011;22242;48.796;9.930;2023-02-18T14:00:50;6.38;;;1.17;;
36205;SDS011;22242;48.796;9.930;2023-02-18T14:03:32;1.08;;;0.63;;
36205;SDS011;22242;48.796;9.930;2023-02-18T14:06:13;1.55;;;1.25;;
36205;SDS011;22242;48.796;9.930;2023-02-18T14:08:42;1.23;;;1.00;;
36205;SDS011;22242;48.796;9.930;2023-02-18T14:11:23;1.10;;;0.93;;
36205;SDS011;22242;48.796;9.930;2023-02-18T14:23:11;1.15;;;1.02;;
36205;SDS011;22242;48.796;9.930;2023-02-18T14:26:02;1.30;;;1.20;;
36205;SDS011;22242;48.796;9.930;2023-02-18T14:28:36;1.52;;;1.15;;
36205;SDS011;22242;48.796;9.930;2023-02-18T14:31:16;1.60;;;1.15;;
36205;SDS011;22242;48.796;9.930;2023-02-18T14:33:54;2.55;;;1.30;;
36205;SDS011;22242;48.796;9.930;2023-02-18T14:36:54;1.48;;;1.38;;
36205;SDS011;22242;48.796;9.930;2023-02-18T14:39:35;1.58;;;1.42;;
36205;SDS011;22242;48.796;9.930;2023-02-18T14:42:10;1.52;;;1.42;;
36205;SDS011;22242;48.796;9.930;2023-02-18T14:44:50;2.00;;;1.17;;
36205;SDS011;22242;48.796;9.930;2023-02-18T14:47:27;3.55;;;1.45;;
36205;SDS011;22242;48.796;9.930;2023-02-18T14:50:02;1.63;;;1.42;;
36205;SDS011;22242;48.796;9.930;2023-02-18T14:52:32;1.42;;;1.33;;
36205;SDS011;22242;48.796;9.930;2023-02-18T14:55:06;1.55;;;1.20;;
36205;SDS011;22242;48.796;9.930;2023-02-18T14:57:43;2.17;;;1.38;;
36205;SDS011;22242;48.796;9.930;2023-02-18T15:00:14;1.65;;;1.45;;
36205;SDS011;22242;48.796;9.930;2023-02-18T15:02:43;2.10;;;1.30;;
36205;SDS011;22242;48.796;9.930;2023-02-18T15:05:15;2.15;;;1.30;;
36205;SDS011;22242;48.796;9.930;2023-02-18T15:07:55;3.65;;;1.60;;
36205;SDS011;22242;48.796;9.930;2023-02-18T15:10:25;3.03;;;1.65;;
36205;SDS011;22242;48.796;9.930;2023-02-18T15:13:01;3.25;;;1.20;;
36205;SDS011;22242;48.796;9.930;2023-02-18T15:15:29;2.42;;;1.27;;
36205;SDS011;22242;48.796;9.930;2023-02-18T15:17:59;1.67;;;1.42;;
36205;SDS011;22242;48.796;9.930;2023-02-18T15:20:28;1.30;;;1.20;;
36205;SDS011;22242;48.796;9.930;2023-02-18T15:22:57;1.85;;;1.17;;
36205;SDS011;22242;48.796;9.930;2023-02-18T15:25:26;1.55;;;1.20;;
36205;SDS011;22242;48.796;9.930;2023-02-18T15:27:54;2.08;;;1.35;;
36205;SDS011;22242;48.796;9.930;2023-02-18T15:30:23;4.63;;;1.77;;
36205;SDS011;22242;48.796;9.930;2023-02-18T15:32:53;2.15;;;1.45;;
36205;SDS011;22242;48.796;9.930;2023-02-18T15:35:21;3.47;;;1.48;;
36205;SDS011;22242;48.796;9.930;2023-02-18T15:37:54;2.00;;;1.30;;
36205;SDS011;22242;48.796;9.930;2023-02-18T15:40:23;2.08;;;1.40;;
36205;SDS011;22242;48.796;9.930;2023-02-18T15:42:54;2.47;;;1.20;;
36205;SDS011;22242;48.796;9.930;2023-02-18T15:45:24;1.27;;;1.17;;